sensor_id;sensor_type;location;lat;lon;timestamp;P1;durP1;ratioP1;P2;durP2;ratioP2
74851;SDS011;63400;50.650;6.832;2023-05-10T00:01:14;19.77;;;3.92;;
74851;SDS011;63400;50.650;6.832;2023-05-10T00:03:39;19.15;;;3.75;;
74851;SDS011;63400;50.650;6.832;2023-05-10T00:06:08;16.27;;;3.40;;
74851;SDS011;63400;50.650;6.832;2023-05-10T00:08:41;17.92;;;3.42;;
74851;SDS011;63400;50.650;6.832;2023-05-10T00:11:07;24.20;;;4.65;;
74851;SDS011;63400;50.650;6.832;2023-05-10T00:13:36;20.42;;;4.00;;
74851;SDS011;63400;50.650;6.832;2023-05-10T00:16:02;30.08;;;5.65;;
74851;SDS011;63400;50.650;6.832;2023-05-10T00:18:35;19.77;;;3.55;;
74851;SDS011;63400;50.650;6.832;2023-05-10T00:21:00;30.95;;;5.47;;
74851;SDS011;63400;50.650;6.832;2023-05-10T00:23:26;16.77;;;3.30;;
74851;SDS011;63400;50.650;6.832;2023-05-10T00:25:51;17.77;;;2.97;;
74851;SDS011;63400;50.650;6.832;2023-05-10T00:28:17;19.25;;;3.70;;
74851;SDS011;63400;50.650;6.832;2023-05-10T00:30:43;15.80;;;2.65;;
74851;SDS011;63400;50.650;6.832;2023-05-10T00:33:08;20.60;;;3.97;;
74851;SDS011;63400;50.650;6.832;2023-05-10T00:35:34;18.40;;;3.53;;
74851;SDS011;63400;50.650;6.832;2023-05-10T00:37:59;21.98;;;3.85;;
74851;SDS011;63400;50.650;6.832;2023-05-10T00:40:26;19.50;;;3.83;;
74851;SDS011;63400;50.650;6.832;2023-05-10T00:42:53;20.50;;;3.92;;
74851;SDS011;63400;50.650;6.832;2023-05-10T00:45:19;17.20;;;3.63;;
74851;SDS011;63400;50.650;6.832;2023-05-10T00:47:44;20.08;;;3.55;;
74851;SDS011;63400;50.650;6.832;2023-05-10T00:50:10;20.38;;;3.25;;
74851;SDS011;63400;50.650;6.832;2023-05-10T00:52:36;20.00;;;3.30;;
74851;SDS011;63400;50.650;6.832;2023-05-10T00:55:01;27.77;;;5.43;;
74851;SDS011;63400;50.650;6.832;2023-05-10T00:57:28;15.10;;;2.90;;
74851;SDS011;63400;50.650;6.832;2023-05-10T00:59:53;16.55;;;2.72;;
74851;SDS011;63400;50.650;6.832;2023-05-10T01:02:19;20.70;;;3.17;;
74851;SDS011;63400;50.650;6.832;2023-05-10T01:04:44;17.02;;;3.17;;
74851;SDS011;63400;50.650;6.832;2023-05-10T01:07:10;29.65;;;5.13;;
74851;SDS011;63400;50.650;6.832;2023-05-10T01:09:36;17.02;;;3.30;;
74851;SDS011;63400;50.650;6.832;2023-05-10T01:12:01;34.22;;;6.25;;
74851;SDS011;63400;50.650;6.832;2023-05-10T01:14:34;20.23;;;3.90;;
74851;SDS011;63400;50.650;6.832;2023-05-10T01:17:03;22.15;;;4.05;;
74851;SDS011;63400;50.650;6.832;2023-05-10T01:19:30;17.73;;;3.25;;
74851;SDS011;63400;50.650;6.832;2023-05-10T01:22:02;22.90;;;4.38;;
74851;SDS011;63400;50.650;6.832;2023-05-10T01:35:47;30.15;;;5.15;;
74851;SDS011;63400;50.650;6.832;2023-05-10T01:38:19;19.17;;;3.85;;
74851;SDS011;63400;50.650;6.832;2023-05-10T01:40:55;19.92;;;4.07;;
74851;SDS011;63400;50.650;6.832;2023-05-10T01:43:26;30.45;;;5.63;;
74851;SDS011;63400;50.650;6.832;2023-05-10T01:46:10;20.65;;;4.03;;
74851;SDS011;63400;50.650;6.832;2023-05-10T01:48:46;18.27;;;3.58;;
74851;SDS011;63400;50.650;6.832;2023-05-10T01:51:14;17.55;;;3.90;;
74851;SDS011;63400;50.650;6.832;2023-05-10T01:53:42;17.67;;;3.80;;
74851;SDS011;63400;50.650;6.832;2023-05-10T01:56:09;17.05;;;3.42;;
74851;SDS011;63400;50.650;6.832;2023-05-10T01:58:35;34.15;;;5.57;;
74851;SDS011;63400;50.650;6.832;2023-05-10T02:01:02;17.83;;;3.38;;
74851;SDS011;63400;50.650;6.832;2023-05-10T02:03:30;23.63;;;4.43;;
74851;SDS011;63400;50.650;6.832;2023-05-10T02:05:57;14.68;;;3.00;;
74851;SDS011;63400;50.650;6.832;2023-05-10T02:08:25;27.83;;;5.30;;
74851;SDS011;63400;50.650;6.832;2023-05-10T02:10:55;20.27;;;3.70;;
74851;SDS011;63400;50.650;6.832;2023-05-10T02:13:21;21.48;;;4.07;;
74851;SDS011;63400;50.650;6.832;2023-05-10T02:15:48;13.93;;;3.08;;
74851;SDS011;63400;50.650;6.832;2023-05-10T02:18:14;17.50;;;3.20;;
74851;SDS011;63400;50.650;6.832;2023-05-10T02:20:41;20.35;;;3.78;;
74851;SDS011;63400;50.650;6.832;2023-05-10T02:23:07;18.90;;;4.03;;
74851;SDS011;63400;50.650;6.832;2023-05-10T02:25:33;25.65;;;5.78;;
74851;SDS011;63400;50.650;6.832;2023-05-10T02:28:00;22.85;;;5.25;;
74851;SDS011;63400;50.650;6.832;2023-05-10T02:30:35;29.20;;;5.90;;
74851;SDS011;63400;50.650;6.832;2023-05-10T02:33:04;20.58;;;4.63;;
74851;SDS011;63400;50.650;6.832;2023-05-10T02:35:34;30.92;;;6.30;;
74851;SDS011;63400;50.650;6.832;2023-05-10T02:38:04;25.17;;;5.38;;
74851;SDS011;63400;50.650;6.832;2023-05-10T02:40:41;20.25;;;4.50;;
74851;SDS011;63400;50.650;6.832;2023-05-10T02:43:12;17.10;;;3.85;;
74851;SDS011;63400;50.650;6.832;2023-05-10T02:45:47;16.05;;;4.00;;
74851;SDS011;63400;50.650;6.832;2023-05-10T02:48:15;20.73;;;4.97;;
74851;SDS011;63400;50.650;6.832;2023-05-10T02:50:42;27.40;;;5.95;;
74851;SDS011;63400;50.650;6.832;2023-05-10T02:53:10;16.38;;;4.05;;
74851;SDS011;63400;50.650;6.832;2023-05-10T02:55:37;21.77;;;4.82;;
74851;SDS011;63400;50.650;6.832;2023-05-10T02:58:05;18.98;;;5.00;;
74851;SDS011;63400;50.650;6.832;2023-05-10T03:00:31;23.48;;;4.93;;
74851;SDS011;63400;50.650;6.832;2023-05-10T03:02:56;22.38;;;5.25;;
74851;SDS011;63400;50.650;6.832;2023-05-10T03:05:22;33.25;;;8.43;;
74851;SDS011;63400;50.650;6.832;2023-05-10T03:07:47;24.58;;;5.15;;
74851;SDS011;63400;50.650;6.832;2023-05-10T03:10:13;21.92;;;4.88;;
74851;SDS011;63400;50.650;6.832;2023-05-10T03:15:34;20.58;;;4.47;;
74851;SDS011;63400;50.650;6.832;2023-05-10T03:18:32;20.73;;;4.30;;
74851;SDS011;63400;50.650;6.832;2023-05-10T03:21:17;20.00;;;4.85;;
74851;SDS011;63400;50.650;6.832;2023-05-10T03:23:48;19.27;;;4.43;;
74851;SDS011;63400;50.650;6.832;2023-05-10T03:26:26;18.20;;;4.10;;
74851;SDS011;63400;50.650;6.832;2023-05-10T03:28:53;20.40;;;4.75;;
74851;SDS011;63400;50.650;6.832;2023-05-10T03:31:19;18.23;;;4.45;;
74851;SDS011;63400;50.650;6.832;2023-05-10T03:33:49;24.92;;;6.07;;
74851;SDS011;63400;50.650;6.832;2023-05-10T03:36:15;17.00;;;3.88;;
74851;SDS011;63400;50.650;6.832;2023-05-10T03:38:41;16.73;;;4.03;;
74851;SDS011;63400;50.650;6.832;2023-05-10T03:41:06;26.23;;;5.60;;
74851;SDS011;63400;50.650;6.832;2023-05-10T03:43:32;20.05;;;4.70;;
74851;SDS011;63400;50.650;6.832;2023-05-10T03:45:57;22.67;;;4.88;;
74851;SDS011;63400;50.650;6.832;2023-05-10T03:48:23;20.08;;;4.57;;
74851;SDS011;63400;50.650;6.832;2023-05-10T03:50:48;16.90;;;4.05;;
74851;SDS011;63400;50.650;6.832;2023-05-10T03:53:14;22.80;;;4.90;;
74851;SDS011;63400;50.650;6.832;2023-05-10T03:55:40;23.40;;;5.97;;
74851;SDS011;63400;50.650;6.832;2023-05-10T03:58:06;20.92;;;4.70;;
74851;SDS011;63400;50.650;6.832;2023-05-10T04:00:31;20.02;;;4.13;;
74851;SDS011;63400;50.650;6.832;2023-05-10T04:02:57;25.70;;;5.80;;
74851;SDS011;63400;50.650;6.832;2023-05-10T04:05:22;23.40;;;5.10;;
74851;SDS011;63400;50.650;6.832;2023-05-10T04:07:48;31.02;;;8.35;;
74851;SDS011;63400;50.650;6.832;2023-05-10T04:10:14;30.63;;;5.78;;
74851;SDS011;63400;50.650;6.832;2023-05-10T04:12:41;21.70;;;4.70;;
74851;SDS011;63400;50.650;6.832;2023-05-10T04:15:07;26.98;;;5.65;;
74851;SDS011;63400;50.650;6.832;2023-05-10T04:17:33;22.85;;;4.97;;
74851;SDS011;63400;50.650;6.832;2023-05-10T04:19:58;17.23;;;4.05;;
74851;SDS011;63400;50.650;6.832;2023-05-10T04:22:24;19.70;;;4.00;;
74851;SDS011;63400;50.650;6.832;2023-05-10T04:24:49;18.15;;;4.05;;
74851;SDS011;63400;50.650;6.832;2023-05-10T04:27:15;22.50;;;4.57;;
74851;SDS011;63400;50.650;6.832;2023-05-10T04:29:43;17.85;;;4.10;;
74851;SDS011;63400;50.650;6.832;2023-05-10T04:32:08;21.98;;;4.95;;
74851;SDS011;63400;50.650;6.832;2023-05-10T04:34:35;18.27;;;4.30;;
74851;SDS011;63400;50.650;6.832;2023-05-10T04:37:01;19.08;;;4.57;;
74851;SDS011;63400;50.650;6.832;2023-05-10T04:39:26;16.02;;;3.63;;
74851;SDS011;63400;50.650;6.832;2023-05-10T04:41:52;15.35;;;3.70;;
74851;SDS011;63400;50.650;6.832;2023-05-10T04:44:17;18.40;;;4.82;;
74851;SDS011;63400;50.650;6.832;2023-05-10T04:46:43;16.90;;;3.78;;
74851;SDS011;63400;50.650;6.832;2023-05-10T04:49:08;24.70;;;5.13;;
74851;SDS011;63400;50.650;6.832;2023-05-10T04:51:34;20.55;;;4.03;;
74851;SDS011;63400;50.650;6.832;2023-05-10T04:54:01;23.42;;;5.22;;
74851;SDS011;63400;50.650;6.832;2023-05-10T04:56:27;16.58;;;3.33;;
74851;SDS011;63400;50.650;6.832;2023-05-10T04:58:52;20.70;;;4.80;;
74851;SDS011;63400;50.650;6.832;2023-05-10T05:01:18;18.98;;;4.32;;
74851;SDS011;63400;50.650;6.832;2023-05-10T05:03:43;16.88;;;4.15;;
74851;SDS011;63400;50.650;6.832;2023-05-10T05:06:10;31.35;;;7.05;;
74851;SDS011;63400;50.650;6.832;2023-05-10T05:08:35;24.65;;;5.60;;
74851;SDS011;63400;50.650;6.832;2023-05-10T05:11:01;21.95;;;5.05;;
74851;SDS011;63400;50.650;6.832;2023-05-10T05:13:26;19.35;;;4.80;;
74851;SDS011;63400;50.650;6.832;2023-05-10T05:15:52;20.85;;;5.07;;
74851;SDS011;63400;50.650;6.832;2023-05-10T05:18:18;21.92;;;5.22;;
74851;SDS011;63400;50.650;6.832;2023-05-10T05:20:43;26.50;;;6.13;;
74851;SDS011;63400;50.650;6.832;2023-05-10T05:23:09;50.42;;;13.25;;
74851;SDS011;63400;50.650;6.832;2023-05-10T05:25:34;26.17;;;6.82;;
74851;SDS011;63400;50.650;6.832;2023-05-10T05:28:00;20.50;;;5.43;;
74851;SDS011;63400;50.650;6.832;2023-05-10T05:30:26;23.63;;;5.53;;
74851;SDS011;63400;50.650;6.832;2023-05-10T05:32:52;22.88;;;6.03;;
74851;SDS011;63400;50.650;6.832;2023-05-10T05:35:20;20.63;;;5.97;;
74851;SDS011;63400;50.650;6.832;2023-05-10T05:37:45;22.13;;;5.50;;
74851;SDS011;63400;50.650;6.832;2023-05-10T05:40:14;26.55;;;6.53;;
74851;SDS011;63400;50.650;6.832;2023-05-10T05:42:40;22.50;;;5.20;;
74851;SDS011;63400;50.650;6.832;2023-05-10T05:45:11;24.08;;;5.80;;
74851;SDS011;63400;50.650;6.832;2023-05-10T05:47:40;23.38;;;5.93;;
74851;SDS011;63400;50.650;6.832;2023-05-10T05:50:09;28.58;;;7.07;;
74851;SDS011;63400;50.650;6.832;2023-05-10T05:52:37;25.65;;;6.13;;
74851;SDS011;63400;50.650;6.832;2023-05-10T05:55:04;27.15;;;6.15;;
74851;SDS011;63400;50.650;6.832;2023-05-10T05:57:31;23.85;;;6.10;;
74851;SDS011;63400;50.650;6.832;2023-05-10T05:59:56;25.45;;;6.05;;
74851;SDS011;63400;50.650;6.832;2023-05-10T06:02:22;24.73;;;5.45;;
74851;SDS011;63400;50.650;6.832;2023-05-10T06:04:48;22.85;;;5.47;;
74851;SDS011;63400;50.650;6.832;2023-05-10T06:07:16;31.15;;;6.38;;
74851;SDS011;63400;50.650;6.832;2023-05-10T06:09:42;20.02;;;5.40;;
74851;SDS011;63400;50.650;6.832;2023-05-10T06:12:08;25.13;;;5.82;;
74851;SDS011;63400;50.650;6.832;2023-05-10T06:14:33;21.80;;;5.60;;
74851;SDS011;63400;50.650;6.832;2023-05-10T06:16:58;21.52;;;5.55;;
74851;SDS011;63400;50.650;6.832;2023-05-10T06:19:25;20.73;;;5.15;;
74851;SDS011;63400;50.650;6.832;2023-05-10T06:21:51;34.58;;;6.68;;
74851;SDS011;63400;50.650;6.832;2023-05-10T06:24:16;24.00;;;5.07;;
74851;SDS011;63400;50.650;6.832;2023-05-10T06:26:42;25.23;;;5.72;;
74851;SDS011;63400;50.650;6.832;2023-05-10T06:29:07;31.20;;;6.32;;
74851;SDS011;63400;50.650;6.832;2023-05-10T06:31:33;20.75;;;4.75;;
74851;SDS011;63400;50.650;6.832;2023-05-10T06:33:58;21.15;;;5.35;;
74851;SDS011;63400;50.650;6.832;2023-05-10T06:36:23;21.27;;;4.88;;
74851;SDS011;63400;50.650;6.832;2023-05-10T06:41:16;20.30;;;5.77;;
74851;SDS011;63400;50.650;6.832;2023-05-10T06:44:03;17.38;;;4.43;;
74851;SDS011;63400;50.650;6.832;2023-05-10T06:46:28;22.15;;;4.75;;
74851;SDS011;63400;50.650;6.832;2023-05-10T06:51:35;17.02;;;4.22;;
74851;SDS011;63400;50.650;6.832;2023-05-10T06:54:04;16.17;;;3.92;;
74851;SDS011;63400;50.650;6.832;2023-05-10T07:07:58;24.30;;;4.72;;
74851;SDS011;63400;50.650;6.832;2023-05-10T07:10:34;19.30;;;4.03;;
74851;SDS011;63400;50.650;6.832;2023-05-10T07:12:59;23.10;;;4.28;;
74851;SDS011;63400;50.650;6.832;2023-05-10T07:15:26;23.95;;;4.97;;
74851;SDS011;63400;50.650;6.832;2023-05-10T07:17:51;21.63;;;4.10;;
74851;SDS011;63400;50.650;6.832;2023-05-10T07:20:17;20.30;;;4.22;;
74851;SDS011;63400;50.650;6.832;2023-05-10T07:22:42;21.40;;;4.55;;
74851;SDS011;63400;50.650;6.832;2023-05-10T07:25:08;28.48;;;5.45;;
74851;SDS011;63400;50.650;6.832;2023-05-10T07:27:33;16.15;;;3.38;;
74851;SDS011;63400;50.650;6.832;2023-05-10T07:29:59;21.48;;;4.20;;
74851;SDS011;63400;50.650;6.832;2023-05-10T07:32:28;23.00;;;4.32;;
74851;SDS011;63400;50.650;6.832;2023-05-10T07:34:53;38.55;;;10.82;;
74851;SDS011;63400;50.650;6.832;2023-05-10T07:37:19;16.80;;;3.60;;
74851;SDS011;63400;50.650;6.832;2023-05-10T07:39:47;22.10;;;4.05;;
74851;SDS011;63400;50.650;6.832;2023-05-10T07:42:13;14.90;;;3.33;;
74851;SDS011;63400;50.650;6.832;2023-05-10T07:44:38;21.38;;;4.72;;
74851;SDS011;63400;50.650;6.832;2023-05-10T07:47:04;33.85;;;6.43;;
74851;SDS011;63400;50.650;6.832;2023-05-10T07:49:32;19.88;;;4.03;;
74851;SDS011;63400;50.650;6.832;2023-05-10T07:51:58;28.65;;;5.22;;
74851;SDS011;63400;50.650;6.832;2023-05-10T07:54:23;21.50;;;4.53;;
74851;SDS011;63400;50.650;6.832;2023-05-10T07:56:48;21.02;;;4.32;;
74851;SDS011;63400;50.650;6.832;2023-05-10T07:59:15;24.17;;;4.70;;
74851;SDS011;63400;50.650;6.832;2023-05-10T08:01:44;17.80;;;4.00;;
74851;SDS011;63400;50.650;6.832;2023-05-10T08:04:09;20.88;;;4.60;;
74851;SDS011;63400;50.650;6.832;2023-05-10T08:06:35;15.90;;;3.60;;
74851;SDS011;63400;50.650;6.832;2023-05-10T08:09:00;18.20;;;3.88;;
74851;SDS011;63400;50.650;6.832;2023-05-10T08:11:26;20.00;;;4.13;;
74851;SDS011;63400;50.650;6.832;2023-05-10T08:13:52;18.20;;;3.85;;
74851;SDS011;63400;50.650;6.832;2023-05-10T08:16:18;22.73;;;3.65;;
74851;SDS011;63400;50.650;6.832;2023-05-10T08:18:44;18.98;;;3.45;;
74851;SDS011;63400;50.650;6.832;2023-05-10T08:21:11;21.60;;;3.97;;
74851;SDS011;63400;50.650;6.832;2023-05-10T08:23:37;25.48;;;4.97;;
74851;SDS011;63400;50.650;6.832;2023-05-10T08:26:03;19.92;;;3.97;;
74851;SDS011;63400;50.650;6.832;2023-05-10T08:28:42;15.35;;;2.67;;
74851;SDS011;63400;50.650;6.832;2023-05-10T08:31:07;15.15;;;2.63;;
74851;SDS011;63400;50.650;6.832;2023-05-10T08:33:36;40.00;;;11.10;;
74851;SDS011;63400;50.650;6.832;2023-05-10T08:36:01;46.47;;;15.15;;
74851;SDS011;63400;50.650;6.832;2023-05-10T08:38:27;24.38;;;5.38;;
74851;SDS011;63400;50.650;6.832;2023-05-10T08:40:55;27.50;;;6.68;;
74851;SDS011;63400;50.650;6.832;2023-05-10T08:43:27;31.77;;;7.97;;
74851;SDS011;63400;50.650;6.832;2023-05-10T08:45:54;50.00;;;15.18;;
74851;SDS011;63400;50.650;6.832;2023-05-10T08:48:21;43.13;;;9.93;;
74851;SDS011;63400;50.650;6.832;2023-05-10T08:50:48;24.08;;;4.32;;
74851;SDS011;63400;50.650;6.832;2023-05-10T08:53:20;21.23;;;4.47;;
74851;SDS011;63400;50.650;6.832;2023-05-10T08:55:46;29.80;;;7.68;;
74851;SDS011;63400;50.650;6.832;2023-05-10T08:58:11;25.10;;;4.82;;
74851;SDS011;63400;50.650;6.832;2023-05-10T09:00:37;25.58;;;4.88;;
74851;SDS011;63400;50.650;6.832;2023-05-10T09:03:03;20.15;;;3.67;;
74851;SDS011;63400;50.650;6.832;2023-05-10T09:05:29;31.45;;;5.68;;
74851;SDS011;63400;50.650;6.832;2023-05-10T09:07:55;29.00;;;6.82;;
74851;SDS011;63400;50.650;6.832;2023-05-10T09:10:21;32.22;;;7.70;;
74851;SDS011;63400;50.650;6.832;2023-05-10T09:12:50;19.25;;;4.03;;
74851;SDS011;63400;50.650;6.832;2023-05-10T09:15:15;24.23;;;4.70;;
74851;SDS011;63400;50.650;6.832;2023-05-10T09:17:42;25.08;;;4.55;;
74851;SDS011;63400;50.650;6.832;2023-05-10T09:20:10;22.67;;;4.68;;
74851;SDS011;63400;50.650;6.832;2023-05-10T09:22:35;34.80;;;6.53;;
74851;SDS011;63400;50.650;6.832;2023-05-10T09:27:34;21.88;;;4.40;;
74851;SDS011;63400;50.650;6.832;2023-05-10T09:30:00;20.70;;;4.32;;
74851;SDS011;63400;50.650;6.832;2023-05-10T09:32:47;24.48;;;4.95;;
74851;SDS011;63400;50.650;6.832;2023-05-10T09:35:17;25.63;;;4.80;;
74851;SDS011;63400;50.650;6.832;2023-05-10T09:37:48;24.10;;;5.30;;
74851;SDS011;63400;50.650;6.832;2023-05-10T09:40:15;26.02;;;5.45;;
74851;SDS011;63400;50.650;6.832;2023-05-10T09:42:55;25.77;;;5.57;;
74851;SDS011;63400;50.650;6.832;2023-05-10T09:45:25;26.00;;;5.30;;
74851;SDS011;63400;50.650;6.832;2023-05-10T09:47:51;40.13;;;7.97;;
74851;SDS011;63400;50.650;6.832;2023-05-10T09:50:18;39.38;;;7.97;;
74851;SDS011;63400;50.650;6.832;2023-05-10T09:52:53;37.22;;;7.68;;
74851;SDS011;63400;50.650;6.832;2023-05-10T09:55:20;42.85;;;8.93;;
74851;SDS011;63400;50.650;6.832;2023-05-10T10:00:16;33.53;;;6.85;;
74851;SDS011;63400;50.650;6.832;2023-05-10T10:02:54;29.92;;;6.45;;
74851;SDS011;63400;50.650;6.832;2023-05-10T10:05:20;38.97;;;8.02;;
74851;SDS011;63400;50.650;6.832;2023-05-10T10:07:46;39.83;;;7.75;;
74851;SDS011;63400;50.650;6.832;2023-05-10T10:10:14;32.60;;;7.07;;
74851;SDS011;63400;50.650;6.832;2023-05-10T10:12:40;29.52;;;6.53;;
74851;SDS011;63400;50.650;6.832;2023-05-10T10:15:06;38.85;;;8.52;;
74851;SDS011;63400;50.650;6.832;2023-05-10T10:17:33;33.22;;;7.70;;
74851;SDS011;63400;50.650;6.832;2023-05-10T10:20:01;30.85;;;6.85;;
74851;SDS011;63400;50.650;6.832;2023-05-10T10:22:28;30.95;;;7.38;;
74851;SDS011;63400;50.650;6.832;2023-05-10T10:24:56;30.40;;;7.30;;
74851;SDS011;63400;50.650;6.832;2023-05-10T10:27:26;28.05;;;6.57;;
74851;SDS011;63400;50.650;6.832;2023-05-10T10:30:03;25.10;;;6.32;;
74851;SDS011;63400;50.650;6.832;2023-05-10T10:32:49;30.70;;;7.22;;
74851;SDS011;63400;50.650;6.832;2023-05-10T10:35:34;27.90;;;6.65;;
74851;SDS011;63400;50.650;6.832;2023-05-10T10:38:03;28.08;;;6.35;;
74851;SDS011;63400;50.650;6.832;2023-05-10T10:40:33;28.00;;;6.10;;
74851;SDS011;63400;50.650;6.832;2023-05-10T10:48:39;28.90;;;6.60;;
74851;SDS011;63400;50.650;6.832;2023-05-10T10:53:34;26.97;;;5.73;;
74851;SDS011;63400;50.650;6.832;2023-05-10T10:56:06;23.70;;;5.43;;
74851;SDS011;63400;50.650;6.832;2023-05-10T10:58:34;24.75;;;5.85;;
74851;SDS011;63400;50.650;6.832;2023-05-10T11:01:11;25.60;;;6.20;;
74851;SDS011;63400;50.650;6.832;2023-05-10T11:03:37;26.98;;;6.22;;
74851;SDS011;63400;50.650;6.832;2023-05-10T11:06:03;24.63;;;5.55;;
74851;SDS011;63400;50.650;6.832;2023-05-10T11:08:29;30.70;;;6.70;;
74851;SDS011;63400;50.650;6.832;2023-05-10T11:13:34;30.13;;;6.95;;
74851;SDS011;63400;50.650;6.832;2023-05-10T11:16:10;31.55;;;7.22;;
74851;SDS011;63400;50.650;6.832;2023-05-10T11:21:26;34.45;;;7.57;;
74851;SDS011;63400;50.650;6.832;2023-05-10T11:23:55;40.92;;;8.38;;
74851;SDS011;63400;50.650;6.832;2023-05-10T11:26:24;35.15;;;7.55;;
74851;SDS011;63400;50.650;6.832;2023-05-10T11:28:53;44.92;;;9.10;;
74851;SDS011;63400;50.650;6.832;2023-05-10T11:31:27;44.75;;;8.90;;
74851;SDS011;63400;50.650;6.832;2023-05-10T11:33:53;31.98;;;6.93;;
74851;SDS011;63400;50.650;6.832;2023-05-10T11:36:21;30.48;;;7.47;;
74851;SDS011;63400;50.650;6.832;2023-05-10T11:38:48;42.42;;;13.70;;
74851;SDS011;63400;50.650;6.832;2023-05-10T11:41:14;27.95;;;6.57;;
74851;SDS011;63400;50.650;6.832;2023-05-10T11:43:41;28.77;;;7.05;;
74851;SDS011;63400;50.650;6.832;2023-05-10T11:46:13;27.58;;;6.32;;
74851;SDS011;63400;50.650;6.832;2023-05-10T11:48:39;24.15;;;5.82;;
74851;SDS011;63400;50.650;6.832;2023-05-10T11:51:06;26.50;;;6.57;;
74851;SDS011;63400;50.650;6.832;2023-05-10T11:53:32;26.88;;;6.05;;
74851;SDS011;63400;50.650;6.832;2023-05-10T11:58:36;23.00;;;5.63;;
74851;SDS011;63400;50.650;6.832;2023-05-10T12:01:06;24.85;;;5.90;;
74851;SDS011;63400;50.650;6.832;2023-05-10T12:03:32;23.10;;;5.57;;
74851;SDS011;63400;50.650;6.832;2023-05-10T12:05:58;25.48;;;5.90;;
74851;SDS011;63400;50.650;6.832;2023-05-10T12:08:25;22.92;;;6.00;;
74851;SDS011;63400;50.650;6.832;2023-05-10T12:10:51;32.75;;;7.60;;
74851;SDS011;63400;50.650;6.832;2023-05-10T12:13:18;22.15;;;5.93;;
74851;SDS011;63400;50.650;6.832;2023-05-10T12:15:45;27.65;;;6.50;;
74851;SDS011;63400;50.650;6.832;2023-05-10T12:18:11;31.23;;;7.25;;
74851;SDS011;63400;50.650;6.832;2023-05-10T12:20:38;25.40;;;6.03;;
74851;SDS011;63400;50.650;6.832;2023-05-10T12:23:04;27.73;;;6.38;;
74851;SDS011;63400;50.650;6.832;2023-05-10T12:25:32;27.48;;;6.22;;
74851;SDS011;63400;50.650;6.832;2023-05-10T12:27:58;28.38;;;6.85;;
74851;SDS011;63400;50.650;6.832;2023-05-10T12:30:29;25.33;;;5.90;;
74851;SDS011;63400;50.650;6.832;2023-05-10T12:33:02;31.35;;;7.00;;
74851;SDS011;63400;50.650;6.832;2023-05-10T12:38:33;23.63;;;5.97;;
74851;SDS011;63400;50.650;6.832;2023-05-10T12:40:59;25.00;;;6.35;;
74851;SDS011;63400;50.650;6.832;2023-05-10T12:43:25;38.95;;;8.00;;
74851;SDS011;63400;50.650;6.832;2023-05-10T12:45:54;44.85;;;9.70;;
74851;SDS011;63400;50.650;6.832;2023-05-10T12:48:20;34.72;;;7.90;;
74851;SDS011;63400;50.650;6.832;2023-05-10T12:50:46;23.98;;;6.03;;
74851;SDS011;63400;50.650;6.832;2023-05-10T12:53:14;37.95;;;8.10;;
74851;SDS011;63400;50.650;6.832;2023-05-10T12:55:41;25.55;;;6.22;;
74851;SDS011;63400;50.650;6.832;2023-05-10T12:58:06;40.88;;;8.57;;
74851;SDS011;63400;50.650;6.832;2023-05-10T13:00:32;31.38;;;7.50;;
74851;SDS011;63400;50.650;6.832;2023-05-10T13:02:58;34.97;;;7.45;;
74851;SDS011;63400;50.650;6.832;2023-05-10T13:05:23;28.08;;;6.10;;
74851;SDS011;63400;50.650;6.832;2023-05-10T13:07:48;35.35;;;7.70;;
74851;SDS011;63400;50.650;6.832;2023-05-10T13:10:14;39.70;;;8.23;;
74851;SDS011;63400;50.650;6.832;2023-05-10T13:12:40;38.60;;;8.10;;
74851;SDS011;63400;50.650;6.832;2023-05-10T13:15:05;47.70;;;9.98;;
74851;SDS011;63400;50.650;6.832;2023-05-10T13:17:31;34.72;;;7.75;;
74851;SDS011;63400;50.650;6.832;2023-05-10T13:19:57;30.83;;;7.20;;
74851;SDS011;63400;50.650;6.832;2023-05-10T13:22:22;38.90;;;8.35;;
74851;SDS011;63400;50.650;6.832;2023-05-10T13:24:47;38.13;;;8.30;;
74851;SDS011;63400;50.650;6.832;2023-05-10T13:27:13;41.17;;;9.00;;
74851;SDS011;63400;50.650;6.832;2023-05-10T13:29:38;48.00;;;9.80;;
74851;SDS011;63400;50.650;6.832;2023-05-10T13:32:04;92.00;;;20.58;;
74851;SDS011;63400;50.650;6.832;2023-05-10T13:34:30;58.45;;;11.75;;
74851;SDS011;63400;50.650;6.832;2023-05-10T13:36:55;49.72;;;10.40;;
74851;SDS011;63400;50.650;6.832;2023-05-10T13:39:21;60.85;;;12.90;;
74851;SDS011;63400;50.650;6.832;2023-05-10T13:41:47;50.80;;;10.05;;
74851;SDS011;63400;50.650;6.832;2023-05-10T13:44:13;50.95;;;10.70;;
74851;SDS011;63400;50.650;6.832;2023-05-10T13:46:44;44.70;;;9.50;;
74851;SDS011;63400;50.650;6.832;2023-05-10T13:49:10;41.63;;;8.90;;
74851;SDS011;63400;50.650;6.832;2023-05-10T13:51:35;34.97;;;7.55;;
74851;SDS011;63400;50.650;6.832;2023-05-10T13:54:01;41.40;;;9.07;;
74851;SDS011;63400;50.650;6.832;2023-05-10T13:56:27;37.42;;;8.10;;
74851;SDS011;63400;50.650;6.832;2023-05-10T13:58:53;35.42;;;7.97;;
74851;SDS011;63400;50.650;6.832;2023-05-10T14:01:19;41.08;;;8.43;;
74851;SDS011;63400;50.650;6.832;2023-05-10T14:03:45;41.97;;;9.00;;
74851;SDS011;63400;50.650;6.832;2023-05-10T14:06:10;33.83;;;6.80;;
74851;SDS011;63400;50.650;6.832;2023-05-10T14:08:35;28.77;;;6.38;;
74851;SDS011;63400;50.650;6.832;2023-05-10T14:11:01;31.67;;;6.90;;
74851;SDS011;63400;50.650;6.832;2023-05-10T14:13:27;33.20;;;7.00;;
74851;SDS011;63400;50.650;6.832;2023-05-10T14:15:53;33.25;;;7.05;;
74851;SDS011;63400;50.650;6.832;2023-05-10T14:18:21;32.80;;;6.63;;
74851;SDS011;63400;50.650;6.832;2023-05-10T14:20:46;35.25;;;7.05;;
74851;SDS011;63400;50.650;6.832;2023-05-10T14:23:12;30.35;;;6.28;;
74851;SDS011;63400;50.650;6.832;2023-05-10T14:25:40;37.03;;;7.53;;
74851;SDS011;63400;50.650;6.832;2023-05-10T14:28:06;32.47;;;6.85;;
74851;SDS011;63400;50.650;6.832;2023-05-10T14:30:31;30.90;;;6.53;;
74851;SDS011;63400;50.650;6.832;2023-05-10T14:32:59;25.00;;;5.05;;
74851;SDS011;63400;50.650;6.832;2023-05-10T14:35:26;35.33;;;7.32;;
74851;SDS011;63400;50.650;6.832;2023-05-10T14:37:52;22.75;;;5.43;;
74851;SDS011;63400;50.650;6.832;2023-05-10T14:40:17;33.72;;;6.85;;
74851;SDS011;63400;50.650;6.832;2023-05-10T14:42:43;25.27;;;5.78;;
74851;SDS011;63400;50.650;6.832;2023-05-10T14:45:09;23.38;;;5.07;;
74851;SDS011;63400;50.650;6.832;2023-05-10T14:47:35;27.67;;;6.25;;
74851;SDS011;63400;50.650;6.832;2023-05-10T14:50:00;24.85;;;5.35;;
74851;SDS011;63400;50.650;6.832;2023-05-10T14:52:25;31.83;;;7.05;;
74851;SDS011;63400;50.650;6.832;2023-05-10T14:54:51;23.80;;;5.30;;
74851;SDS011;63400;50.650;6.832;2023-05-10T14:57:17;30.30;;;6.22;;
74851;SDS011;63400;50.650;6.832;2023-05-10T14:59:42;26.08;;;5.38;;
74851;SDS011;63400;50.650;6.832;2023-05-10T15:02:17;21.30;;;4.38;;
74851;SDS011;63400;50.650;6.832;2023-05-10T15:04:44;17.30;;;4.40;;
74851;SDS011;63400;50.650;6.832;2023-05-10T15:07:10;17.92;;;3.83;;
74851;SDS011;63400;50.650;6.832;2023-05-10T15:09:39;15.45;;;3.28;;
74851;SDS011;63400;50.650;6.832;2023-05-10T15:12:05;16.45;;;3.40;;
74851;SDS011;63400;50.650;6.832;2023-05-10T15:14:31;14.70;;;3.03;;
74851;SDS011;63400;50.650;6.832;2023-05-10T15:16:57;14.57;;;2.88;;
74851;SDS011;63400;50.650;6.832;2023-05-10T15:19:25;19.67;;;3.67;;
74851;SDS011;63400;50.650;6.832;2023-05-10T15:21:51;22.50;;;4.28;;
74851;SDS011;63400;50.650;6.832;2023-05-10T15:24:18;13.07;;;2.60;;
74851;SDS011;63400;50.650;6.832;2023-05-10T15:26:44;13.52;;;2.65;;
74851;SDS011;63400;50.650;6.832;2023-05-10T15:29:09;16.70;;;2.90;;